Kirsten H — WY7979 — position and weather

sailwx.info

Track history (hours):
 
Tides and Currents Weather Stations Pressure Air Temp Water Temp Dewpoint Dewpoint Depression Visibility Wind Speed Wind Dir Waves Ship Positions

Kirsten H

Owner: BOYER TOWING, KETCHIKAN, AK. More information available from US FCC via Universal Licensing System and Coast Guard Vessel Documentation Center.

Last reported at 2017-Jul-26 22:05 UTC. Time now 2017-Jul-27 00:29 UTC.
Position N 48°44' W 122°45'.

Length 22 m; draft 3.7 m.

Type: Tug. MMSI: 366623050.

Date/timePositionNaut miles runAvg speedWind from/ knotsBaromVisibWave heightAir tempDewpointWater temp
2017-Jul-26 22:05N 48°44' W 122°45'0 6.4
2017-Jul-26 22:00N 48°44' W 122°44'3 6.3
2017-Jul-26 21:30N 48°41' W 122°42'3 5.3
2017-Jul-26 21:00N 48°38' W 122°43'2 3.8
2017-Jul-26 20:30N 48°37' W 122°45'2 3.1
2017-Jul-26 20:00N 48°35' W 122°46'1 2.1
2017-Jul-26 19:30N 48°34' W 122°46'2 3.2
2017-Jul-26 19:00N 48°33' W 122°45'2 3.4
2017-Jul-26 18:30N 48°31' W 122°44'1 2.7
2017-Jul-26 18:00N 48°30' W 122°44'2 3.2
2017-Jul-26 17:30N 48°28' W 122°44'2 3.6
2017-Jul-26 17:00N 48°26' W 122°44'2 4.4
2017-Jul-26 16:30N 48°24' W 122°44'3 5.4
2017-Jul-26 15:54N 48°21' W 122°45'2 5.9
2017-Jul-26 15:30N 48°19' W 122°46'3 5.9
2017-Jul-26 14:56N 48°16' W 122°47'4 4.6
2017-Jul-26 14:00N 48°11' W 122°47'14 4.2
2017-Jul-26 10:36N 47°59' W 122°35'0 4.6
2017-Jul-26 10:30N 47°59' W 122°35'2 4.4
2017-Jul-26 10:00N 47°57' W 122°33'2 4.7
2017-Jul-26 09:30N 47°56' W 122°30'2 4.8
2017-Jul-26 09:00N 47°54' W 122°28'3 5.1
2017-Jul-26 08:30N 47°51' W 122°27'3 5.1
2017-Jul-26 08:00N 47°49' W 122°26'3 5.3
2017-Jul-26 07:30N 47°46' W 122°26'2 5.0
2017-Jul-26 07:00N 47°44' W 122°26'3 5.4
2017-Jul-26 06:30N 47°41' W 122°27'3 5.3
2017-Jul-26 06:00N 47°38' W 122°27'3 5.1
2017-Jul-26 05:30N 47°37' W 122°24'2 3.1
2017-Jul-26 05:00N 47°36' W 122°23'0 0.5
2017-Jul-26 04:30N 47°35' W 122°22'0 0.1
2017-Jul-26 04:00N 47°35' W 122°22'0 0.0
2017-Jul-26 03:30N 47°35' W 122°22'0 0.3
2017-Jul-26 03:00N 47°35' W 122°22'2 3.7
2017-Jul-26 02:30N 47°34' W 122°21'2 2.9
2017-Jul-26 01:59N 47°32' W 122°20'0 0.0
2017-Jul-26 01:29N 47°32' W 122°20'0 0.0
2017-Jul-26 00:59N 47°32' W 122°20'0 0.0
2017-Jul-26 00:30N 47°32' W 122°20'0 0.0
2017-Jul-25 23:56N 47°32' W 122°20'0 0.0
2017-Jul-25 23:30N 47°32' W 122°20'3 6.0
2017-Jul-25 23:00N 47°35' W 122°22'0 1.0
2017-Jul-25 22:30N 47°35' W 122°22'2 3.9
2017-Jul-25 21:59N 47°33' W 122°20'1 0.0
2017-Jul-24 23:40N 47°32' W 122°20'1 2.6
2017-Jul-24 23:28N 47°33' W 122°20'4 8.1
2017-Jul-24 23:00N 47°36' W 122°23'5 9.5
2017-Jul-24 22:30N 47°40' W 122°26'2 3.1
2017-Jul-24 22:00N 47°40' W 122°24'0 0.2
2017-Jul-24 21:30N 47°40' W 122°24'0 0.4
2017-Jul-24 21:00N 47°40' W 122°23'0 0.0
2017-Jul-24 20:30N 47°40' W 122°23'0 0.0
2017-Jul-24 20:00N 47°40' W 122°23'0 0.0
2017-Jul-24 19:30N 47°40' W 122°23'0 0.6
2017-Jul-24 19:00N 47°40' W 122°24'2 3.8
2017-Jul-24 18:30N 47°38' W 122°26'5 9.5
2017-Jul-24 18:00N 47°35' W 122°22'  
2017-Jul-18 09:12N 47°32' W 122°20'0 0.3
2017-Jul-18 09:00N 47°32' W 122°20'0 0.2
2017-Jul-18 08:29N 47°32' W 122°20'2 3.1
2017-Jul-18 08:00N 47°34' W 122°21'2 3.4
2017-Jul-18 07:30N 47°35' W 122°22'1 1.9
2017-Jul-18 07:00N 47°36' W 122°23'3 6.3
2017-Jul-18 06:30N 47°38' W 122°27'4 7.1
2017-Jul-18 06:00N 47°41' W 122°28'4 8.0
2017-Jul-18 05:30N 47°45' W 122°27'4 8.0
2017-Jul-18 05:00N 47°49' W 122°28'4 8.0
2017-Jul-18 04:30N 47°53' W 122°29'4 8.1
2017-Jul-18 04:00N 47°56' W 122°33'23 7.7
2017-Jul-18 01:00N 48°17' W 122°48'4 7.8
2017-Jul-18 00:30N 48°21' W 122°46'4 7.7
2017-Jul-18 00:00N 48°25' W 122°45'4 8.2
2017-Jul-17 23:30N 48°29' W 122°45'4 8.6
2017-Jul-17 23:00N 48°33' W 122°45'4 8.4
2017-Jul-17 22:30N 48°37' W 122°45'4 8.0
2017-Jul-17 22:00N 48°41' W 122°44'28 8.3
2017-Jul-17 18:37N 48°58' W 123°18'2 9.0
2017-Jul-17 18:27N 48°59' W 123°20'56 8.0
2017-Jul-17 11:27N 49°35' W 124°25'4 7.3
2017-Jul-17 10:57N 49°38' W 124°30'4 7.6
2017-Jul-17 10:27N 49°40' W 124°34'4 7.9
2017-Jul-17 10:00N 49°42' W 124°39'4 7.9
2017-Jul-17 09:30N 49°45' W 124°44'4 7.5
2017-Jul-17 09:00N 49°46' W 124°49'4 7.6
2017-Jul-17 08:30N 49°48' W 124°54'4 7.9
2017-Jul-17 07:59N 49°50' W 124°59'4 8.4
2017-Jul-17 07:30N 49°53' W 125°04'3 7.0
2017-Jul-17 07:00N 49°56' W 125°08'4 7.2
2017-Jul-17 06:30N 49°58' W 125°11'4 7.5
2017-Jul-17 06:00N 50°02' W 125°14'4 8.4
2017-Jul-17 05:30N 50°05' W 125°17'4 8.1
2017-Jul-17 05:00N 50°08' W 125°21'3 5.8
2017-Jul-17 04:30N 50°11' W 125°22'2 4.7
2017-Jul-17 04:00N 50°14' W 125°23'2 4.5
2017-Jul-17 03:28N 50°16' W 125°24'3 5.6
2017-Jul-17 03:00N 50°18' W 125°25'5 7.7
2017-Jul-17 02:23N 50°21' W 125°31'10 7.8
2017-Jul-17 01:09N 50°22' W 125°46'  
Track history (hours):
 
Tides and Currents Weather Stations Pressure Air Temp Water Temp Dewpoint Dewpoint Depression Visibility Wind Speed Wind Dir Waves Ship Positions

Kirsten H

Owner: BOYER TOWING, KETCHIKAN, AK. More information available from US FCC via Universal Licensing System and Coast Guard Vessel Documentation Center.

Last reported at 2017-Jul-26 22:05 UTC. Time now 2017-Jul-27 00:29 UTC.
Position N 48°44' W 122°45'.

Length 22 m; draft 3.7 m.

Type: Tug. MMSI: 366623050.

Date/timePositionNaut miles runAvg speedWind from/ knotsBaromVisibWave heightAir tempDewpointWater temp
2017-Jul-26 22:05N 48°44' W 122°45'0 6.4
2017-Jul-26 22:00N 48°44' W 122°44'3 6.3
2017-Jul-26 21:30N 48°41' W 122°42'3 5.3
2017-Jul-26 21:00N 48°38' W 122°43'2 3.8
2017-Jul-26 20:30N 48°37' W 122°45'2 3.1
2017-Jul-26 20:00N 48°35' W 122°46'1 2.1
2017-Jul-26 19:30N 48°34' W 122°46'2 3.2
2017-Jul-26 19:00N 48°33' W 122°45'2 3.4
2017-Jul-26 18:30N 48°31' W 122°44'1 2.7
2017-Jul-26 18:00N 48°30' W 122°44'2 3.2
2017-Jul-26 17:30N 48°28' W 122°44'2 3.6
2017-Jul-26 17:00N 48°26' W 122°44'2 4.4
2017-Jul-26 16:30N 48°24' W 122°44'3 5.4
2017-Jul-26 15:54N 48°21' W 122°45'2 5.9
2017-Jul-26 15:30N 48°19' W 122°46'3 5.9
2017-Jul-26 14:56N 48°16' W 122°47'4 4.6
2017-Jul-26 14:00N 48°11' W 122°47'14 4.2
2017-Jul-26 10:36N 47°59' W 122°35'0 4.6
2017-Jul-26 10:30N 47°59' W 122°35'2 4.4
2017-Jul-26 10:00N 47°57' W 122°33'2 4.7
2017-Jul-26 09:30N 47°56' W 122°30'2 4.8
2017-Jul-26 09:00N 47°54' W 122°28'3 5.1
2017-Jul-26 08:30N 47°51' W 122°27'3 5.1
2017-Jul-26 08:00N 47°49' W 122°26'3 5.3
2017-Jul-26 07:30N 47°46' W 122°26'2 5.0
2017-Jul-26 07:00N 47°44' W 122°26'3 5.4
2017-Jul-26 06:30N 47°41' W 122°27'3 5.3
2017-Jul-26 06:00N 47°38' W 122°27'3 5.1
2017-Jul-26 05:30N 47°37' W 122°24'2 3.1
2017-Jul-26 05:00N 47°36' W 122°23'0 0.5
2017-Jul-26 04:30N 47°35' W 122°22'0 0.1
2017-Jul-26 04:00N 47°35' W 122°22'0 0.0
2017-Jul-26 03:30N 47°35' W 122°22'0 0.3
2017-Jul-26 03:00N 47°35' W 122°22'2 3.7
2017-Jul-26 02:30N 47°34' W 122°21'2 2.9
2017-Jul-26 01:59N 47°32' W 122°20'0 0.0
2017-Jul-26 01:29N 47°32' W 122°20'0 0.0
2017-Jul-26 00:59N 47°32' W 122°20'0 0.0
2017-Jul-26 00:30N 47°32' W 122°20'0 0.0
2017-Jul-25 23:56N 47°32' W 122°20'0 0.0
2017-Jul-25 23:30N 47°32' W 122°20'3 6.0
2017-Jul-25 23:00N 47°35' W 122°22'0 1.0
2017-Jul-25 22:30N 47°35' W 122°22'2 3.9
2017-Jul-25 21:59N 47°33' W 122°20'1 0.0
2017-Jul-24 23:40N 47°32' W 122°20'1 2.6
2017-Jul-24 23:28N 47°33' W 122°20'4 8.1
2017-Jul-24 23:00N 47°36' W 122°23'5 9.5
2017-Jul-24 22:30N 47°40' W 122°26'2 3.1
2017-Jul-24 22:00N 47°40' W 122°24'0 0.2
2017-Jul-24 21:30N 47°40' W 122°24'0 0.4
2017-Jul-24 21:00N 47°40' W 122°23'0 0.0
2017-Jul-24 20:30N 47°40' W 122°23'0 0.0
2017-Jul-24 20:00N 47°40' W 122°23'0 0.0
2017-Jul-24 19:30N 47°40' W 122°23'0 0.6
2017-Jul-24 19:00N 47°40' W 122°24'2 3.8
2017-Jul-24 18:30N 47°38' W 122°26'5 9.5
2017-Jul-24 18:00N 47°35' W 122°22'  
2017-Jul-18 09:12N 47°32' W 122°20'0 0.3
2017-Jul-18 09:00N 47°32' W 122°20'0 0.2
2017-Jul-18 08:29N 47°32' W 122°20'2 3.1
2017-Jul-18 08:00N 47°34' W 122°21'2 3.4
2017-Jul-18 07:30N 47°35' W 122°22'1 1.9
2017-Jul-18 07:00N 47°36' W 122°23'3 6.3
2017-Jul-18 06:30N 47°38' W 122°27'4 7.1
2017-Jul-18 06:00N 47°41' W 122°28'4 8.0
2017-Jul-18 05:30N 47°45' W 122°27'4 8.0
2017-Jul-18 05:00N 47°49' W 122°28'4 8.0
2017-Jul-18 04:30N 47°53' W 122°29'4 8.1
2017-Jul-18 04:00N 47°56' W 122°33'23 7.7
2017-Jul-18 01:00N 48°17' W 122°48'4 7.8
2017-Jul-18 00:30N 48°21' W 122°46'4 7.7
2017-Jul-18 00:00N 48°25' W 122°45'4 8.2
2017-Jul-17 23:30N 48°29' W 122°45'4 8.6
2017-Jul-17 23:00N 48°33' W 122°45'4 8.4
2017-Jul-17 22:30N 48°37' W 122°45'4 8.0
2017-Jul-17 22:00N 48°41' W 122°44'28 8.3
2017-Jul-17 18:37N 48°58' W 123°18'2 9.0
2017-Jul-17 18:27N 48°59' W 123°20'56 8.0
2017-Jul-17 11:27N 49°35' W 124°25'4 7.3
2017-Jul-17 10:57N 49°38' W 124°30'4 7.6
2017-Jul-17 10:27N 49°40' W 124°34'4 7.9
2017-Jul-17 10:00N 49°42' W 124°39'4 7.9
2017-Jul-17 09:30N 49°45' W 124°44'4 7.5
2017-Jul-17 09:00N 49°46' W 124°49'4 7.6
2017-Jul-17 08:30N 49°48' W 124°54'4 7.9
2017-Jul-17 07:59N 49°50' W 124°59'4 8.4
2017-Jul-17 07:30N 49°53' W 125°04'3 7.0
2017-Jul-17 07:00N 49°56' W 125°08'4 7.2
2017-Jul-17 06:30N 49°58' W 125°11'4 7.5
2017-Jul-17 06:00N 50°02' W 125°14'4 8.4
2017-Jul-17 05:30N 50°05' W 125°17'4 8.1
2017-Jul-17 05:00N 50°08' W 125°21'3 5.8
2017-Jul-17 04:30N 50°11' W 125°22'2 4.7
2017-Jul-17 04:00N 50°14' W 125°23'2 4.5
2017-Jul-17 03:28N 50°16' W 125°24'3 5.6
2017-Jul-17 03:00N 50°18' W 125°25'5 7.7
2017-Jul-17 02:23N 50°21' W 125°31'10 7.8
2017-Jul-17 01:09N 50°22' W 125°46'  

Dump ship's entire track history